Time;durP1;ratioP1;P1;durP2;ratioP2;P2;SDS_P1;SDS_P2;PMS_P1;PMS_P2;Temp;Humidity;BMP_temperature;BMP_pressure;BME280_temperature;BME280_humidity;BME280_pressure;Samples;Min_cycle;Max_cycle;Signal;HPM_P1;HPM_P2
2022/05/23 04:36:00;;;;;;;;;7.25;5.00;;;;;20.70;58.66;99783.44;5017950;28;45311;-57
2022/05/23 04:38:25;;;;;;;;;3.25;3.25;;;;;20.69;58.95;99778.16;5018379;28;45368;-56
2022/05/23 04:40:50;;;;;;;;;5.00;5.00;;;;;20.68;59.43;99782.75;5018321;28;45368;-58
2022/05/23 04:43:16;;;;;;;;;5.00;4.00;;;;;20.63;58.82;99776.94;5018548;28;46150;-58
2022/05/23 04:45:42;;;;;;;;;4.00;4.00;;;;;20.60;58.42;99803.59;5018515;28;45381;-58
2022/05/23 04:50:52;;;;;;;;;4.75;4.75;;;;;20.53;58.97;99788.91;5018575;28;45218;-59
2022/05/23 04:53:18;;;;;;;;;4.00;4.00;;;;;20.58;59.37;99806.50;5017950;28;45547;-58
2022/05/23 04:55:43;;;;;;;;;3.25;3.00;;;;;20.58;59.07;99795.63;5018540;28;45393;-56
2022/05/23 04:58:10;;;;;;;;;4.00;4.00;;;;;20.60;59.46;99781.81;5018596;28;45393;-56
2022/05/23 05:00:36;;;;;;;;;7.00;4.00;;;;;20.60;59.27;99779.94;5018595;28;45507;-57
2022/05/23 05:03:01;;;;;;;;;4.50;3.50;;;;;20.60;59.92;99769.06;5018160;28;46654;-58
2022/05/23 05:05:28;;;;;;;;;5.00;4.00;;;;;20.62;59.43;99753.44;5018478;28;45387;-58
2022/05/23 05:07:55;;;;;;;;;4.00;4.00;;;;;20.60;59.41;99746.41;5018147;28;45388;-56
2022/05/23 05:10:23;;;;;;;;;4.00;4.00;;;;;20.58;59.73;99741.16;5018034;28;45423;-58
2022/05/23 05:12:49;;;;;;;;;6.75;5.00;;;;;20.62;59.29;99742.53;5017834;28;46074;-57
2022/05/23 05:15:14;;;;;;;;;4.50;4.50;;;;;20.63;59.70;99743.38;5018404;28;45262;-57
2022/05/23 05:17:39;;;;;;;;;3.50;3.50;;;;;20.51;59.87;99737.31;5018253;28;45400;-56
2022/05/23 05:20:05;;;;;;;;;3.00;3.00;;;;;20.62;59.80;99772.50;5018003;28;45365;-55
2022/05/23 05:22:31;;;;;;;;;4.50;4.50;;;;;20.63;59.38;99762.44;5017951;28;45345;-57
2022/05/23 05:24:56;;;;;;;;;6.00;4.00;;;;;20.67;59.69;99742.06;5017938;28;45357;-57
2022/05/23 05:27:21;;;;;;;;;4.00;4.00;;;;;20.69;59.85;99734.56;5018208;28;45386;-57
2022/05/23 05:29:47;;;;;;;;;5.75;4.00;;;;;20.72;59.60;99739.72;5018204;28;45391;-57
2022/05/23 05:32:19;;;;;;;;;6.00;3.50;;;;;20.73;59.61;99735.97;5017840;28;45388;-56
2022/05/23 05:34:52;;;;;;;;;6.25;6.25;;;;;20.76;59.58;99733.78;5018914;28;45311;-56
2022/05/23 05:37:44;;;;;;;;;11.25;7.25;;;;;20.76;59.87;99750.13;5021238;28;45295;-56
2022/05/23 05:40:12;;;;;;;;;6.50;6.25;;;;;20.77;59.80;99786.38;5003307;28;46379;-56
2022/05/23 05:42:44;;;;;;;;;5.00;5.00;;;;;20.59;60.29;99783.69;5021139;28;47080;-57
2022/05/23 05:45:15;;;;;;;;;8.50;6.50;;;;;20.67;60.58;99796.53;5020632;28;45411;-57
2022/05/23 05:47:44;;;;;;;;;7.50;7.50;;;;;20.63;60.70;99781.50;5021171;28;45262;-57
2022/05/23 05:50:17;;;;;;;;;5.75;5.25;;;;;20.60;60.82;99782.69;5021140;28;45512;-56
2022/05/23 05:52:44;;;;;;;;;5.75;5.75;;;;;20.61;61.08;99773.50;5020978;28;45434;-56
2022/05/23 05:55:09;;;;;;;;;4.75;4.75;;;;;20.55;60.23;99749.63;5021143;28;45389;-57
2022/05/23 05:57:36;;;;;;;;;6.00;5.75;;;;;20.58;60.54;99746.59;5021212;28;45354;-58
2022/05/23 06:00:04;;;;;;;;;7.50;4.75;;;;;20.64;60.50;99748.69;5020959;28;45500;-56
2022/05/23 06:02:29;;;;;;;;;6.00;6.00;;;;;20.70;60.52;99753.47;5020949;28;46145;-57
2022/05/23 06:04:55;;;;;;;;;5.00;5.00;;;;;20.71;60.54;99754.34;5020857;28;45298;-57
2022/05/23 06:12:57;;;;;;;;;5.75;5.50;;;;;20.58;61.09;99775.69;5020522;28;45684;-58
2022/05/23 06:15:23;;;;;;;;;7.75;5.75;;;;;20.48;61.61;99780.38;5021004;28;45321;-58
2022/05/23 06:17:50;;;;;;;;;8.00;6.00;;;;;20.39;61.64;99776.72;5020748;28;45501;-58
2022/05/23 06:20:15;;;;;;;;;7.00;7.00;;;;;20.34;62.25;99779.91;5020230;28;45572;-58
2022/05/23 06:22:41;;;;;;;;;7.50;6.75;;;;;20.17;62.28;99758.09;5019917;28;46227;-57
2022/05/23 06:25:08;;;;;;;;;5.25;5.25;;;;;20.18;62.59;99759.81;5015020;28;45732;-57
2022/05/23 06:27:34;;;;;;;;;13.00;8.00;;;;;20.20;62.67;99755.06;5018520;28;45374;-58
2022/05/23 06:29:59;;;;;;;;;6.00;6.00;;;;;20.23;62.72;99750.19;5020459;28;45464;-58
2022/05/23 06:32:24;;;;;;;;;5.50;5.50;;;;;20.27;62.67;99732.50;5019830;28;45436;-57
2022/05/23 06:34:50;;;;;;;;;7.00;7.00;;;;;20.25;62.75;99739.97;5020050;28;45365;-53
2022/05/23 06:37:16;;;;;;;;;7.75;7.75;;;;;20.20;63.47;99715.09;5019768;28;45327;-52
2022/05/23 06:39:41;;;;;;;;;9.00;8.00;;;;;20.16;63.34;99704.69;5020056;28;45597;-53
2022/05/23 06:42:07;;;;;;;;;7.75;6.50;;;;;20.19;63.39;99710.66;5019864;28;46268;-51
2022/05/23 06:44:32;;;;;;;;;9.00;7.25;;;;;20.14;64.22;99720.31;5019705;28;45299;-52
2022/05/23 06:46:58;;;;;;;;;5.75;5.75;;;;;20.10;64.13;99724.34;5019820;28;45312;-58
2022/05/23 06:49:24;;;;;;;;;9.00;7.50;;;;;20.10;64.42;99708.88;5019890;28;45959;-59
2022/05/23 06:51:51;;;;;;;;;5.00;5.00;;;;;20.11;64.47;99709.75;5019578;28;46307;-59
2022/05/23 06:54:19;;;;;;;;;11.00;6.00;;;;;20.10;64.43;99700.72;5019485;28;45399;-58
2022/05/23 06:56:45;;;;;;;;;6.75;6.75;;;;;20.05;64.35;99694.91;5019581;28;45551;-57
2022/05/23 06:59:11;;;;;;;;;5.50;5.50;;;;;20.07;64.69;99709.22;5019744;28;45277;-59
2022/05/23 07:01:37;;;;;;;;;8.25;7.00;;;;;20.02;64.82;99700.66;5019684;28;45389;-58
2022/05/23 07:04:02;;;;;;;;;6.25;6.25;;;;;20.02;64.78;99698.78;5019637;28;45338;-58
2022/05/23 07:14:41;;;;;;;;;7.25;7.25;;;;;20.09;66.00;99714.47;5019338;28;45420;-58
2022/05/23 07:17:06;;;;;;;;;9.00;7.00;;;;;20.05;65.88;99704.94;5019652;28;45394;-59
2022/05/23 07:19:34;;;;;;;;;10.00;10.00;;;;;20.01;66.09;99705.22;5019298;28;45312;-59
2022/05/23 07:22:02;;;;;;;;;8.25;8.25;;;;;20.07;65.34;99711.94;5019416;28;46307;-58
2022/05/23 07:24:28;;;;;;;;;8.25;8.25;;;;;20.10;66.12;99706.16;5000769;28;45345;-58
2022/05/23 07:26:54;;;;;;;;;7.50;6.00;;;;;20.00;65.91;99711.69;5019621;28;45430;-58
2022/05/23 07:29:22;;;;;;;;;4.75;3.00;;;;;19.99;66.73;99720.00;5019348;28;45392;-59
2022/05/23 07:31:49;;;;;;;;;8.50;7.50;;;;;20.01;66.50;99717.97;5018217;28;45321;-58
2022/05/23 07:34:14;;;;;;;;;10.00;10.00;;;;;19.92;66.53;99711.59;5019159;28;45329;-59
2022/05/23 07:36:40;;;;;;;;;10.50;10.50;;;;;20.05;67.20;99730.28;5019085;28;45537;-59
2022/05/23 07:39:08;;;;;;;;;12.25;9.50;;;;;19.99;67.31;99737.16;5018915;28;45331;-58
2022/05/23 07:41:34;;;;;;;;;9.75;8.25;;;;;19.90;67.99;99726.38;5019086;28;46992;-59
2022/05/23 07:43:59;;;;;;;;;10.25;10.00;;;;;19.87;67.78;99715.81;5018448;28;45408;-58
2022/05/23 07:46:24;;;;;;;;;8.50;8.50;;;;;19.90;67.96;99672.84;5019237;28;45380;-58
2022/05/23 07:48:51;;;;;;;;;10.50;10.00;;;;;19.93;68.83;99666.22;5018927;28;45494;-59
2022/05/23 07:51:19;;;;;;;;;14.00;13.00;;;;;19.90;68.59;99637.47;5018765;28;46987;-58
2022/05/23 08:01:57;;;;;;;;;10.50;10.50;;;;;20.10;68.55;99650.88;5018522;28;45235;-59
2022/05/23 08:04:23;;;;;;;;;12.25;11.75;;;;;20.24;69.05;99669.38;5018350;28;45215;-57
2022/05/23 08:06:49;;;;;;;;;13.50;11.50;;;;;20.28;69.20;99662.59;5000757;28;45355;-58
2022/05/23 08:09:16;;;;;;;;;10.75;10.50;;;;;20.35;69.48;99663.69;5018293;28;45524;-58
2022/05/23 08:11:44;;;;;;;;;18.00;11.25;;;;;20.36;69.01;99662.69;5017867;28;45351;-59
2022/05/23 08:14:11;;;;;;;;;12.25;11.25;;;;;20.30;68.99;99664.16;5016686;28;45471;-59
2022/05/23 08:16:36;;;;;;;;;10.50;8.75;;;;;20.22;71.09;99672.25;5017763;28;45468;-58
2022/05/23 08:19:03;;;;;;;;;9.25;9.00;;;;;20.11;70.61;99667.06;5018311;28;45397;-59
2022/05/23 08:21:30;;;;;;;;;15.25;13.25;;;;;20.06;71.77;99672.13;5018404;28;46144;-58
2022/05/23 08:23:56;;;;;;;;;13.25;12.75;;;;;20.00;72.94;99689.06;5017578;28;45368;-58
2022/05/23 08:26:21;;;;;;;;;11.25;11.25;;;;;19.90;72.30;99699.19;5018217;28;45669;-58
2022/05/23 08:28:47;;;;;;;;;11.25;11.25;;;;;19.85;73.31;99702.34;5018583;28;45302;-58
2022/05/23 08:31:12;;;;;;;;;10.50;10.50;;;;;19.83;72.64;99701.66;5018052;28;46123;-59
2022/05/23 08:33:37;;;;;;;;;11.25;11.25;;;;;19.87;72.24;99702.22;5018630;28;45464;-59
2022/05/23 08:36:03;;;;;;;;;12.50;10.75;;;;;19.87;72.43;99696.75;5018572;28;45321;-59
2022/05/23 08:38:28;;;;;;;;;11.50;11.00;;;;;19.85;71.96;99690.63;5017315;28;45324;-57
2022/05/23 08:40:59;;;;;;;;;8.75;8.00;;;;;19.83;71.12;99687.19;5018234;28;47042;-59
2022/05/23 08:43:43;;;;;;;;;13.75;10.00;;;;;19.69;71.70;99687.72;5018298;28;45256;-58
2022/05/23 08:46:17;;;;;;;;;11.25;11.25;;;;;19.66;71.89;99686.16;5018407;28;45188;-59
2022/05/23 08:48:50;;;;;;;;;13.75;13.00;;;;;19.71;72.31;99688.44;5017860;28;45927;-59
2022/05/23 08:51:25;;;;;;;;;13.25;11.00;;;;;19.69;71.43;99685.03;5018155;28;45353;-58
2022/05/23 08:53:53;;;;;;;;;12.75;12.75;;;;;19.70;71.88;99692.16;5018029;28;45531;-58
2022/05/23 08:56:39;;;;;;;;;15.50;15.00;;;;;19.66;72.06;99699.75;5017993;28;45337;-58
2022/05/23 08:59:25;;;;;;;;;10.25;9.75;;;;;19.67;71.84;99693.31;5017792;28;45561;-57
2022/05/23 09:01:59;;;;;;;;;11.50;10.50;;;;;19.58;71.32;99688.81;5017972;28;46980;-58
2022/05/23 09:04:42;;;;;;;;;15.25;13.50;;;;;19.56;70.50;99688.94;5017686;28;45374;-58
2022/05/23 09:07:19;;;;;;;;;13.75;12.25;;;;;19.55;70.74;99708.16;5017898;28;45667;-58
2022/05/23 09:09:44;;;;;;;;;14.75;12.50;;;;;19.50;71.20;99705.88;5020017;28;45324;-59
2022/05/23 09:12:14;;;;;;;;;14.75;13.00;;;;;19.53;71.45;99699.28;5021506;28;45960;-58
2022/05/23 09:14:40;;;;;;;;;14.25;14.25;;;;;19.60;71.01;99706.69;5021210;28;45368;-58
2022/05/23 09:17:17;;;;;;;;;14.00;12.50;;;;;19.62;70.26;99703.81;5021421;28;45339;-58
2022/05/23 09:19:54;;;;;;;;;12.25;12.25;;;;;19.63;69.54;99703.66;5021180;28;45447;-58
2022/05/23 09:22:43;;;;;;;;;15.75;14.50;;;;;19.62;70.00;99691.09;5020937;28;45389;-58
2022/05/23 09:25:09;;;;;;;;;17.00;15.50;;;;;19.72;69.40;99704.63;5021053;28;45526;-58
2022/05/23 09:27:41;;;;;;;;;16.00;14.25;;;;;19.72;68.38;99698.31;5021272;28;45499;-57
2022/05/23 09:30:10;;;;;;;;;13.00;13.00;;;;;19.65;68.93;99703.50;5021395;28;45364;-58
2022/05/23 09:33:04;;;;;;;;;13.50;13.50;;;;;19.63;68.64;99684.63;5020496;28;45420;-59
2022/05/23 09:35:50;;;;;;;;;14.25;14.25;;;;;19.78;69.16;99687.66;5020396;28;45365;-59
2022/05/23 09:38:18;;;;;;;;;17.00;13.75;;;;;19.84;68.40;99691.63;5020738;28;45578;-58
2022/05/23 09:40:45;;;;;;;;;15.75;15.00;;;;;19.81;67.90;99687.38;5020688;28;45339;-59
2022/05/23 09:49:19;;;;;;;;;11.25;11.25;;;;;19.65;68.07;99673.59;4998007;28;45432;-58
2022/05/23 09:52:15;;;;;;;;;11.50;10.25;;;;;19.74;67.63;99680.81;5021021;28;46310;-58
2022/05/23 09:54:54;;;;;;;;;13.00;13.00;;;;;19.81;66.43;99689.22;5017322;28;46175;-59
2022/05/23 09:57:26;;;;;;;;;16.25;16.25;;;;;19.81;65.80;99687.38;5020689;28;45338;-57
2022/05/23 10:00:05;;;;;;;;;13.75;13.75;;;;;19.85;66.08;99686.03;5019965;28;45388;-58
2022/05/23 10:02:34;;;;;;;;;13.25;13.00;;;;;19.82;65.66;99689.06;5019659;28;45634;-58
2022/05/23 10:04:59;;;;;;;;;16.75;16.75;;;;;19.75;65.66;99685.25;5020347;28;46202;-59
2022/05/23 10:07:32;;;;;;;;;17.50;17.50;;;;;19.80;65.58;99685.66;5015817;28;45781;-58
2022/05/23 10:10:20;;;;;;;;;16.00;16.00;;;;;19.79;66.29;99678.50;5019080;28;45541;-58
2022/05/23 10:12:47;;;;;;;;;20.50;15.75;;;;;19.78;65.89;99674.06;5020201;28;45325;-58
2022/05/23 10:15:24;;;;;;;;;18.25;17.25;;;;;19.79;65.99;99674.94;5020443;28;45899;-58
2022/05/23 10:18:03;;;;;;;;;20.75;18.50;;;;;19.76;65.75;99676.09;5019865;28;45866;-58
2022/05/23 10:20:40;;;;;;;;;23.00;23.00;;;;;19.79;66.14;99683.09;5011088;28;45297;-58
2022/05/23 10:23:12;;;;;;;;;17.75;17.75;;;;;19.83;66.29;99688.03;5019812;28;45171;-57
2022/05/23 10:26:00;;;;;;;;;18.00;18.00;;;;;19.82;65.86;99680.06;5019811;28;45264;-58
2022/05/23 10:28:44;;;;;;;;;22.25;21.25;;;;;19.74;65.63;99683.53;5000449;28;45338;-58
2022/05/23 10:31:21;;;;;;;;;20.75;19.75;;;;;19.69;66.00;99685.03;5019301;28;45414;-58
2022/05/23 10:33:53;;;;;;;;;18.00;18.00;;;;;19.71;66.41;99691.16;5020205;28;45495;-58
2022/05/23 10:36:24;;;;;;;;;17.25;15.25;;;;;19.72;66.46;99679.28;5019498;28;45406;-58
2022/05/23 10:42:10;;;;;;;;;20.75;20.75;;;;;19.77;67.83;99685.97;5020265;28;45431;-58
2022/05/23 10:44:57;;;;;;;;;18.50;16.50;;;;;19.72;66.76;99684.72;5019836;28;45506;-58
2022/05/23 10:47:42;;;;;;;;;21.25;21.00;;;;;19.65;68.33;99671.72;5019969;28;46203;-58
2022/05/23 10:50:18;;;;;;;;;21.00;21.00;;;;;19.64;67.72;99674.63;5020262;28;45388;-57
2022/05/23 10:53:01;;;;;;;;;21.25;21.00;;;;;19.51;68.14;99676.84;5019823;28;45422;-58
2022/05/23 10:55:50;;;;;;;;;20.00;20.00;;;;;19.47;68.47;99678.13;5019641;28;45583;-57
2022/05/23 10:58:30;;;;;;;;;21.25;19.50;;;;;19.46;68.39;99670.97;4981624;28;45595;-58
2022/05/23 11:00:58;;;;;;;;;23.25;23.25;;;;;19.46;68.91;99676.41;5019810;28;45334;-57
2022/05/23 11:03:36;;;;;;;;;18.75;18.75;;;;;19.33;68.22;99670.47;5019787;28;45381;-58
2022/05/23 11:06:28;;;;;;;;;20.75;20.00;;;;;19.30;68.53;99697.97;5019863;28;45581;-57
2022/05/23 11:09:22;;;;;;;;;26.25;23.25;;;;;19.24;68.97;99692.13;5019256;28;46191;-58
2022/05/23 11:12:24;;;;;;;;;20.25;20.25;;;;;19.22;69.37;99694.13;5019097;28;45396;-58
2022/05/23 11:14:58;;;;;;;;;18.00;17.00;;;;;19.20;70.08;99679.00;5019087;28;45459;-58
2022/05/23 11:18:02;;;;;;;;;21.50;21.00;;;;;19.20;70.55;99689.88;5019604;28;45394;-58
2022/05/23 11:20:36;;;;;;;;;28.75;24.50;;;;;19.12;71.01;99677.03;4946347;28;46003;-60
2022/05/23 11:23:09;;;;;;;;;25.25;25.25;;;;;19.09;72.34;99682.78;5019055;28;45471;-59
2022/05/23 11:25:39;;;;;;;;;31.25;29.75;;;;;19.01;72.57;99688.09;5019281;28;45750;-53
2022/05/23 11:34:30;;;;;;;;;25.25;25.25;;;;;19.04;73.61;99681.53;5017547;28;45408;-53
2022/05/23 11:39:50;;;;;;;;;22.00;22.00;;;;;19.31;75.25;99686.09;5018805;28;45380;-52
2022/05/23 11:42:27;;;;;;;;;22.50;21.25;;;;;19.46;74.95;99685.44;5018838;28;46269;-53
2022/05/23 11:45:56;;;;;;;;;28.00;25.75;;;;;19.52;72.30;99695.72;5018801;28;45355;-52
2022/05/23 11:47:50;;;;;;;;;21.50;20.75;;;;;19.47;73.04;99702.59;5018878;28;45389;-52
2022/05/23 11:50:29;;;;;;;;;20.50;20.50;;;;;19.34;72.88;99689.34;5019004;28;45409;-52
2022/05/23 11:53:07;;;;;;;;;24.25;22.50;;;;;19.32;73.20;99688.66;5018699;28;46929;-51
2022/05/23 11:55:50;;;;;;;;;26.25;26.00;;;;;19.31;73.49;99692.38;5018882;28;45439;-53
2022/05/23 11:58:31;;;;;;;;;22.50;21.75;;;;;19.34;73.10;99696.66;5018715;28;45363;-53
2022/05/23 12:01:11;;;;;;;;;23.00;22.25;;;;;19.28;73.12;99700.84;5018923;28;45322;-53
2022/05/23 12:03:55;;;;;;;;;23.25;23.25;;;;;19.22;73.26;99705.00;5018666;28;46187;-53
2022/05/23 12:06:23;;;;;;;;;26.00;21.75;;;;;19.18;72.87;99713.63;5018636;28;45350;-55
2022/05/23 12:09:11;;;;;;;;;17.25;17.25;;;;;19.07;72.38;99711.94;5018680;28;45210;-52
2022/05/23 12:11:39;;;;;;;;;13.75;13.75;;;;;18.93;72.36;99722.44;5011725;28;45654;-53
2022/05/23 12:14:19;;;;;;;;;18.00;18.00;;;;;18.80;71.71;99720.91;5018562;28;46035;-52
2022/05/23 12:17:05;;;;;;;;;21.00;21.00;;;;;18.71;72.36;99732.66;5018204;28;45334;-54
2022/05/23 12:19:39;;;;;;;;;19.25;18.75;;;;;18.66;72.27;99726.81;5018189;28;45392;-54
2022/05/23 12:22:26;;;;;;;;;16.00;15.75;;;;;18.63;71.83;99732.50;5018618;28;45367;-53
2022/05/23 12:24:56;;;;;;;;;17.25;17.25;;;;;18.50;72.14;99731.94;5017391;28;46158;-53
2022/05/23 12:27:29;;;;;;;;;20.50;17.25;;;;;18.43;72.75;99745.25;5017628;28;45353;-53
2022/05/23 12:30:21;;;;;;;;;16.00;16.00;;;;;18.38;72.15;99742.09;5018612;28;45329;-53
2022/05/23 12:32:47;;;;;;;;;23.00;16.50;;;;;18.39;72.80;99760.09;5007747;28;45655;-53
2022/05/23 12:35:16;;;;;;;;;19.50;17.50;;;;;18.34;72.32;99756.09;5018603;28;45234;-54
2022/05/23 12:38:03;;;;;;;;;16.50;16.50;;;;;18.24;71.75;99750.69;5017447;28;45298;-53
2022/05/23 12:40:39;;;;;;;;;16.50;16.50;;;;;18.35;72.03;99780.41;5017704;28;45270;-55
2022/05/23 12:43:26;;;;;;;;;17.75;17.75;;;;;18.22;71.31;99766.25;5018153;28;45390;-53
2022/05/23 12:46:09;;;;;;;;;21.00;19.00;;;;;18.12;71.72;99763.53;5018015;28;45348;-53
2022/05/23 12:48:59;;;;;;;;;15.25;15.25;;;;;18.17;72.53;99778.53;5018041;28;45400;-56
2022/05/23 12:51:57;;;;;;;;;17.50;16.25;;;;;18.17;72.02;99782.09;5018345;28;45472;-54
2022/05/23 12:54:59;;;;;;;;;16.75;16.75;;;;;18.23;71.74;99780.66;4973589;28;45422;-51
2022/05/23 12:57:52;;;;;;;;;17.00;17.00;;;;;18.22;71.17;99784.38;5017901;28;46295;-53
2022/05/23 13:00:20;;;;;;;;;15.00;15.00;;;;;18.14;71.29;99785.94;5017142;28;45420;-54
2022/05/23 13:02:48;;;;;;;;;15.00;15.00;;;;;18.13;71.04;99795.06;5010459;28;45337;-53
2022/05/23 13:05:26;;;;;;;;;14.25;14.25;;;;;18.07;70.46;99786.66;5017641;28;45291;-56
2022/05/23 13:08:00;;;;;;;;;15.50;15.50;;;;;18.13;70.62;99789.66;5017560;28;46433;-55
2022/05/23 13:10:36;;;;;;;;;21.00;19.50;;;;;18.09;69.74;99785.53;5017959;28;45520;-53
2022/05/23 13:13:24;;;;;;;;;18.25;18.00;;;;;18.17;69.93;99800.22;5017789;28;45353;-54
2022/05/23 13:15:50;;;;;;;;;17.25;16.00;;;;;18.18;69.73;99801.94;5016940;28;45416;-54
2022/05/23 13:23:52;;;;;;;;;11.00;11.00;;;;;18.63;68.64;99805.00;5017523;28;45341;-54
2022/05/23 13:26:18;;;;;;;;;14.00;14.00;;;;;18.72;69.10;99787.78;5017249;28;45539;-55
2022/05/23 13:28:49;;;;;;;;;16.50;15.25;;;;;18.89;68.25;99793.34;5017307;28;46348;-51
2022/05/23 13:31:30;;;;;;;;;12.50;12.50;;;;;19.03;66.43;99802.91;5017194;28;45412;-54
2022/05/23 13:33:58;;;;;;;;;9.50;8.25;;;;;19.12;64.85;99799.31;5017538;28;45407;-56
2022/05/23 13:36:48;;;;;;;;;7.25;7.00;;;;;19.01;64.75;99768.72;5017441;28;45437;-52
2022/05/23 13:39:17;;;;;;;;;7.25;7.25;;;;;19.17;65.08;99785.25;5017170;28;47126;-54
2022/05/23 13:41:43;;;;;;;;;12.00;10.00;;;;;19.23;65.03;99787.38;5017377;28;45420;-53
2022/05/23 13:44:23;;;;;;;;;11.75;8.00;;;;;19.31;64.26;99781.22;5017350;28;45475;-51
2022/05/23 13:46:51;;;;;;;;;6.75;6.75;;;;;19.44;63.32;99787.16;5017243;28;45364;-53
2022/05/23 13:49:31;;;;;;;;;5.75;5.75;;;;;19.43;63.80;99767.28;5017063;28;45344;-50
2022/05/23 13:52:02;;;;;;;;;7.75;6.50;;;;;19.76;63.33;99795.75;5017429;28;45464;-55
2022/05/23 13:54:37;;;;;;;;;5.75;5.75;;;;;19.86;62.90;99792.97;5024247;28;45368;-55
2022/05/23 13:57:05;;;;;;;;;7.00;7.00;;;;;19.95;60.72;99801.09;5021102;28;45464;-51
2022/05/23 13:59:36;;;;;;;;;6.00;6.00;;;;;20.03;62.02;99805.75;5039143;28;46170;-56
2022/05/23 14:02:20;;;;;;;;;5.75;5.75;;;;;20.25;62.18;99785.38;5022000;28;45492;-54
2022/05/23 14:04:47;;;;;;;;;6.50;6.50;;;;;20.54;60.71;99804.25;5020611;28;45441;-55
2022/05/23 14:07:15;;;;;;;;;6.25;6.25;;;;;20.62;58.94;99817.94;5020790;28;45392;-52
2022/05/23 14:09:47;;;;;;;;;5.75;5.75;;;;;20.51;59.71;99818.16;5020183;28;45824;-55
2022/05/23 14:12:18;;;;;;;;;4.50;4.50;;;;;20.35;59.16;99797.94;5022399;28;45591;-55
2022/05/23 14:14:51;;;;;;;;;5.50;5.50;;;;;20.30;57.90;99813.00;5020002;28;45456;-54
2022/05/23 14:17:26;;;;;;;;;3.00;3.00;;;;;19.77;58.85;99751.22;5020269;28;45281;-54
2022/05/23 14:19:55;;;;;;;;;6.50;6.50;;;;;20.09;59.26;99820.59;5019804;28;46161;-53
2022/05/23 14:22:30;;;;;;;;;6.25;4.75;;;;;20.07;58.98;99849.84;5019844;28;45341;-55
2022/05/23 14:24:59;;;;;;;;;3.75;3.75;;;;;19.89;58.82;99838.94;5019717;28;45346;-54
2022/05/23 14:27:34;;;;;;;;;5.75;4.25;;;;;19.84;58.98;99833.91;5019413;28;45344;-54
2022/05/23 14:30:28;;;;;;;;;4.00;4.00;;;;;19.85;59.30;99849.25;5020185;28;45985;-56
2022/05/23 14:32:55;;;;;;;;;0.00;0.00;;;;;19.80;59.74;99857.00;5019664;28;45262;-55
2022/05/23 14:35:34;;;;;;;;;5.50;5.50;;;;;19.74;60.01;99854.00;5020314;28;45354;-54
2022/05/23 14:38:01;;;;;;;;;4.00;4.00;;;;;19.72;59.92;99851.47;5020192;28;45375;-56
2022/05/23 14:40:42;;;;;;;;;7.00;5.75;;;;;19.72;59.76;99851.47;5018658;28;45361;-53
2022/05/23 14:43:13;;;;;;;;;5.00;5.00;;;;;19.69;58.62;99857.19;5019501;28;45337;-55
2022/05/23 14:45:51;;;;;;;;;6.00;4.00;;;;;19.72;59.21;99866.94;5019678;28;45329;-55
2022/05/23 14:48:23;;;;;;;;;6.50;4.50;;;;;19.74;59.16;99851.28;5019877;28;45517;-54
2022/05/23 14:50:56;;;;;;;;;5.25;5.25;;;;;19.74;58.93;99863.03;5020094;28;45324;-54
2022/05/23 14:56:20;;;;;;;;;4.50;4.50;;;;;19.47;59.06;99844.84;5019862;28;45393;-53
2022/05/23 15:01:35;;;;;;;;;7.75;6.25;;;;;19.39;59.69;99854.72;5019648;28;45376;-52
2022/05/23 15:04:04;;;;;;;;;5.50;5.50;;;;;19.36;59.37;99868.59;5019552;28;45294;-53
2022/05/23 15:06:30;;;;;;;;;2.75;2.75;;;;;19.31;59.76;99874.47;5019680;28;45365;-52
2022/05/23 15:08:58;;;;;;;;;4.00;4.00;;;;;19.24;60.27;99878.78;5019430;28;45398;-53
2022/05/23 15:11:27;;;;;;;;;7.75;7.75;;;;;19.23;60.51;99885.19;5019450;28;45413;-54
2022/05/23 15:13:54;;;;;;;;;5.00;5.00;;;;;19.22;60.62;99876.19;5019358;28;45341;-55
2022/05/23 15:16:29;;;;;;;;;6.00;6.00;;;;;19.24;59.98;99887.78;5019597;28;45403;-51
2022/05/23 15:18:55;;;;;;;;;4.50;4.50;;;;;19.14;60.51;99894.25;5019298;28;45257;-52
2022/05/23 15:21:20;;;;;;;;;5.00;5.00;;;;;19.12;61.03;99896.25;5019179;28;45313;-53
2022/05/23 15:23:46;;;;;;;;;6.75;6.75;;;;;19.08;61.14;99898.41;5018993;28;45414;-54
2022/05/23 15:26:24;;;;;;;;;4.50;4.25;;;;;19.03;61.31;99898.00;5019442;28;45432;-53
2022/05/23 15:28:51;;;;;;;;;4.75;4.75;;;;;18.93;61.75;99905.28;5019354;28;45296;-53
2022/05/23 15:31:19;;;;;;;;;4.00;4.00;;;;;18.85;61.94;99902.44;5018851;28;46402;-53
2022/05/23 15:33:45;;;;;;;;;4.00;4.00;;;;;18.82;62.19;99909.00;5000979;28;45373;-57
2022/05/23 15:36:10;;;;;;;;;4.00;3.75;;;;;18.81;62.53;99906.41;5019334;28;45424;-53
2022/05/23 15:38:35;;;;;;;;;5.75;5.75;;;;;18.78;62.61;99904.00;5018561;28;45365;-53
2022/05/23 15:41:02;;;;;;;;;4.50;4.00;;;;;18.78;62.49;99906.72;5019090;28;46374;-55
2022/05/23 15:43:28;;;;;;;;;4.00;4.00;;;;;18.76;62.54;99908.72;5018313;28;45322;-55
2022/05/23 15:45:53;;;;;;;;;4.50;4.50;;;;;18.73;62.99;99907.13;5019635;28;45368;-52
2022/05/23 15:48:22;;;;;;;;;4.50;4.50;;;;;18.73;63.53;99909.84;5019010;28;45362;-55
2022/05/23 15:50:48;;;;;;;;;3.00;3.00;;;;;18.72;63.41;99913.56;5016584;28;46619;-58
2022/05/23 15:53:15;;;;;;;;;5.00;5.00;;;;;18.72;63.63;99921.72;5012917;28;45504;-58
2022/05/23 15:55:44;;;;;;;;;4.00;4.00;;;;;18.63;64.14;99922.56;5018574;28;45426;-57
2022/05/23 15:58:13;;;;;;;;;4.00;4.00;;;;;18.54;64.28;99921.50;5016013;28;46701;-57
2022/05/23 16:00:40;;;;;;;;;4.50;4.50;;;;;18.53;65.04;99921.69;5019343;28;46287;-57
2022/05/23 16:03:08;;;;;;;;;5.50;5.50;;;;;18.42;65.07;99925.38;5019279;28;45337;-56
2022/05/23 16:05:36;;;;;;;;;6.25;6.00;;;;;18.44;65.60;99936.09;5019247;28;45432;-57
2022/05/23 16:08:03;;;;;;;;;6.25;6.25;;;;;18.41;66.38;99926.38;5018602;28;45515;-58
2022/05/23 16:10:29;;;;;;;;;7.00;7.00;;;;;18.36;65.92;99925.09;5019012;28;46211;-57
2022/05/23 16:13:11;;;;;;;;;7.50;5.75;;;;;18.44;65.94;99936.09;5018870;28;45258;-58
2022/05/23 16:15:39;;;;;;;;;9.25;9.00;;;;;18.41;66.24;99939.94;5019099;28;45274;-56
2022/05/23 16:18:05;;;;;;;;;10.00;10.00;;;;;18.32;67.02;99948.91;5018413;28;45330;-57
2022/05/23 16:20:31;;;;;;;;;7.50;7.50;;;;;18.23;67.47;99938.88;5018436;28;46751;-57
2022/05/23 16:22:59;;;;;;;;;6.50;6.50;;;;;18.20;68.75;99952.75;5017803;28;45352;-57
2022/05/23 16:25:24;;;;;;;;;8.50;8.50;;;;;18.13;69.61;99957.84;5018900;28;45421;-56
2022/05/23 16:27:50;;;;;;;;;8.75;6.50;;;;;18.11;69.74;99957.16;5018079;28;45373;-57
2022/05/23 16:30:17;;;;;;;;;4.75;4.00;;;;;18.00;70.41;99962.66;5018579;28;46474;-57
2022/05/23 16:38:11;;;;;;;;;6.00;6.00;;;;;17.84;70.71;99959.59;5018568;28;45363;-57
2022/05/23 16:40:37;;;;;;;;;5.00;5.00;;;;;17.78;70.49;99973.66;5018300;28;45986;-58
2022/05/23 16:43:02;;;;;;;;;3.25;3.25;;;;;17.73;70.51;99965.09;5018468;28;45434;-58
2022/05/23 16:45:27;;;;;;;;;5.00;5.00;;;;;17.73;70.57;99976.81;5018571;28;45496;-57
2022/05/23 16:47:53;;;;;;;;;7.00;7.00;;;;;17.68;70.68;99973.66;5018641;28;45355;-56
2022/05/23 16:50:18;;;;;;;;;7.00;7.00;;;;;17.70;70.21;99996.03;5018105;28;46135;-57
2022/05/23 16:52:45;;;;;;;;;8.75;8.75;;;;;17.69;69.94;99980.75;5018534;28;45373;-58
2022/05/23 16:55:11;;;;;;;;;6.00;5.75;;;;;17.71;69.88;99981.50;5018498;28;45549;-58
2022/05/23 16:57:37;;;;;;;;;6.50;6.00;;;;;17.77;69.24;99980.97;5018604;28;45348;-56
2022/05/23 17:00:03;;;;;;;;;8.00;7.00;;;;;17.78;69.00;99985.38;4999988;28;45441;-57
2022/05/23 17:02:29;;;;;;;;;10.75;8.25;;;;;17.74;69.22;99983.94;5015655;28;45478;-53
2022/05/23 17:04:55;;;;;;;;;8.00;8.00;;;;;17.67;68.62;99985.47;5015454;28;45536;-60
2022/05/23 17:07:21;;;;;;;;;9.25;7.50;;;;;17.59;68.81;99993.38;5017575;28;46193;-61
2022/05/23 17:09:46;;;;;;;;;8.50;8.50;;;;;17.53;68.73;99979.50;5018003;28;46074;-60
2022/05/23 17:12:12;;;;;;;;;8.00;7.50;;;;;17.56;68.80;99985.50;5017986;28;45442;-60
2022/05/23 17:14:37;;;;;;;;;8.50;7.25;;;;;17.55;69.19;99983.78;5018293;28;45294;-61
2022/05/23 17:17:03;;;;;;;;;8.75;8.75;;;;;17.42;69.16;99968.75;5018008;28;45488;-60
2022/05/23 17:19:29;;;;;;;;;10.50;8.00;;;;;17.48;69.13;99987.16;5017969;28;46458;-60
2022/05/23 17:21:54;;;;;;;;;9.00;6.50;;;;;17.50;69.09;99990.63;5018154;28;45403;-60